• Join FlightAware (Why Join?)
  • Login
  • US Flag 
11:03PM EDT


 

Airport Tracker/Info


-or-


 

Live Flight TrackerFlight Track Log ✈ JBU527 ✈ 09-Apr-2013 ✈ KEWR - KMCO

Flight Track Log - Related Links

Times and Time Zones

All times are in EDT time to prevent confusion due to time zone crossing. See the JBU527 flight status page for this flight to view local times or setup timezone preferences in your user account.

Time Position Orientation Groundspeed Altitude Reporting Facility
EDT Latitude Longitude Course Direction KTS MPH feet Rate Location/Type
07:13PM 40.6850 -74.1733 12° North 49 56 100  Level FlightAware ADS-B
07:13PM 40.6738 -74.1793 202° Southwest 158 182 700 2,160 Climbing FlightAware ADS-B
07:13PM 40.6699 -74.1799 187° South 164 189 900 2,640 Climbing FlightAware ADS-B
07:14PM 40.6672 -74.1800 182° South 166 191 1,100 1,860 Climbing FlightAware ADS-B
07:14PM 40.6480 -74.1846 190° South 175 201 1,800 1,680 Climbing FlightAware ADS-B
07:14PM 40.6459 -74.1864 213° Southwest 177 204 1,900 960 Climbing FlightAware ADS-B
07:14PM 40.6439 -74.1885 219° Southwest 179 206 1,900 1,320 Level FlightAware ADS-B
07:14PM 40.6337 -74.1989 218° Southwest 197 227 2,300 1,320 Climbing FlightAware ADS-B
07:15PM 40.6090 -74.2214 215° Southwest 219 252 2,900 1,560 Climbing FlightAware ADS-B
07:15PM 40.5928 -74.2364 215° Southwest 219 252 3,500 2,820 Climbing FlightAware ADS-B
07:15PM 40.5749 -74.2528 215° Southwest 260 299 4,600 3,360 Climbing FlightAware ADS-B
07:16PM 40.5638 -74.2625 214° Southwest 263 303 5,200 2,820 Climbing FlightAware ADS-B
07:16PM 40.5572 -74.2668 206° Southwest 265 305 5,400 2,160 Climbing FlightAware ADS-B
07:16PM 40.5512 -74.2696 200° South 268 308 5,600 1,680 Climbing FlightAware ADS-B
07:16PM 40.5403 -74.2713 187° South 273 314 5,800 1,500 Climbing FlightAware ADS-B
07:16PM 40.5358 -74.2711 178° South 275 316 5,900 1,200 Climbing FlightAware ADS-B
07:16PM 40.5331 -74.2706 172° South 276 318 5,900 1,200 Level FlightAware ADS-B
07:16PM 40.5293 -74.2695 168° South 277 319 6,000 1,500 Climbing FlightAware ADS-B
07:16PM 40.5282 -74.2691 165° South 277 319 6,000  Level FlightAware ADS-B
07:16PM 40.5139 -74.2627 161° South 279 321 6,000  Level FlightAware ADS-B
07:16PM 40.5105 -74.2610 159° South 278 320 6,000  Level FlightAware ADS-B
07:17PM 40.4914 -74.2507 158° South 279 321 6,000  Level FlightAware ADS-B
07:17PM 40.4895 -74.2497 158° South 279 321 6,000  Level FlightAware ADS-B
07:17PM 40.4730 -74.2407 157° South 279 321 6,000  Level FlightAware ADS-B
07:17PM 40.4669 -74.2374 158° South 279 321 6,000  Level FlightAware ADS-B
07:17PM 40.4466 -74.2268 158° South 282 325 6,000  Level FlightAware ADS-B
07:17PM 40.4274 -74.2170 159° South 282 325 6,000  Level FlightAware ADS-B
07:18PM 40.4028 -74.2047 159° South 283 326 6,000  Level FlightAware ADS-B
07:18PM 40.3838 -74.1952 159° South 281 323 6,000 180 Level FlightAware ADS-B
07:18PM 40.3640 -74.1853 159° South 280 322 6,100 540 Climbing FlightAware ADS-B
07:18PM 40.3580 -74.1824 160° South 281 323 6,200 2,520 Climbing FlightAware ADS-B
07:19PM 40.3377 -74.1724 159° South 285 328 7,000 2,880 Climbing FlightAware ADS-B
07:19PM 40.3193 -74.1640 161° South 294 338 7,700 2,400 Climbing FlightAware ADS-B
07:19PM 40.3101 -74.1621 171° South 297 342 7,900 2,280 Climbing FlightAware ADS-B
07:19PM 40.2952 -74.1636 184° South 296 341 8,400 3,120 Climbing FlightAware ADS-B
07:19PM 40.2835 -74.1666 191° South 292 336 8,900 3,840 Climbing FlightAware ADS-B
07:19PM 40.2754 -74.1690 193° South 292 336 9,300 2,880 Climbing FlightAware ADS-B
07:20PM 40.2347 -74.1822 194° South 304 350 10,700 1,740 Climbing FlightAware ADS-B
07:20PM 40.1906 -74.1963 194° South 344 396 11,100 1,440 Climbing FlightAware ADS-B
07:21PM 40.1350 -74.2128 193° South 364 419 12,300 2,220 Climbing FlightAware ADS-B
07:21PM 40.0966 -74.2246 193° South 366 421 13,300 2,820 Climbing FlightAware ADS-B
07:22PM 40.0790 -74.2339 202° Southwest 360 414 13,900 2,820 Climbing FlightAware ADS-B
07:22PM 40.0683 -74.2429 213° Southwest 354 407 14,200 1,980 Climbing FlightAware ADS-B
07:22PM 40.0542 -74.2618 226° Southwest 347 399 14,600 1,860 Climbing FlightAware ADS-B
07:22PM 40.0512 -74.2679 237° Southwest 345 397 14,700 1,980 Climbing FlightAware ADS-B
07:23PM 40.0312 -74.3310 248° West 347 399 15,800 2,040 Climbing FlightAware ADS-B
07:23PM 40.0198 -74.3694 249° West 353 406 16,500 2,280 Climbing FlightAware ADS-B
07:23PM 40.0145 -74.3826 242° Southwest 359 413 16,800 1,980 Climbing FlightAware ADS-B
07:23PM 40.0036 -74.4009 232° Southwest 368 423 17,100 2,280 Climbing FlightAware ADS-B
07:24PM 39.9775 -74.4288 219° Southwest 369 425 18,000 2,280 Climbing FlightAware ADS-B
07:24PM 39.9361 -74.4704 218° Southwest 380 437 19,000 1,920 Climbing FlightAware ADS-B
07:25PM 39.8922 -74.5147 218° Southwest 385 443 20,000 1,740 Climbing FlightAware ADS-B
07:25PM 39.8480 -74.5597 218° Southwest 392 451 20,800 1,620 Climbing FlightAware ADS-B
07:26PM 39.8000 -74.6085 218° Southwest 399 459 21,800 1,560 Climbing FlightAware ADS-B
07:26PM 39.7559 -74.6531 218° Southwest 404 465 22,500 1,320 Climbing FlightAware ADS-B
07:27PM 39.7102 -74.6995 218° Southwest 412 474 23,200 1,500 Climbing FlightAware ADS-B
07:27PM 39.6607 -74.7495 218° Southwest 415 478 24,100 1,380 Climbing FlightAware ADS-B
07:28PM 39.6081 -74.8024 218° Southwest 425 489 24,800 1,440 Climbing FlightAware ADS-B
07:28PM 39.5612 -74.8498 218° Southwest 425 489 25,700 1,500 Climbing FlightAware ADS-B
07:29PM 39.5051 -74.9062 218° Southwest 429 494 26,500 1,200 Climbing FlightAware ADS-B
07:29PM 39.4567 -74.9548 218° Southwest 435 501 27,100 1,080 Climbing FlightAware ADS-B
07:30PM 39.4081 -75.0035 218° Southwest 440 506 27,600 1,140 Climbing FlightAware ADS-B
07:30PM 39.3533 -75.0561 217° Southwest 447 514 28,300 1,080 Climbing FlightAware ADS-B
07:31PM 39.3275 -75.0767 212° Southwest 451 519 28,500 1,020 Climbing FlightAware ADS-B
07:31PM 39.2911 -75.1019 208° Southwest 455 524 28,900 1,200 Climbing FlightAware ADS-B
07:31PM 39.2540 -75.1240 205° Southwest 458 527 29,300 1,020 Climbing FlightAware ADS-B
07:32PM 39.2343 -75.1343 202° Southwest 462 532 29,400 1,020 Climbing FlightAware ADS-B
07:32PM 39.1729 -75.1615 199° South 464 534 30,000 1,140 Climbing FlightAware ADS-B
07:33PM 39.0978 -75.1954 199° South 461 531 30,700 1,140 Climbing FlightAware ADS-B
07:33PM 39.0292 -75.2253 199° South 464 534 31,400 1,500 Climbing FlightAware ADS-B
07:34PM 38.9665 -75.2516 198° South 454 522 32,300 2,280 Climbing FlightAware ADS-B
07:35PM 38.8617 -75.2956 198° South 454 522 34,700 1,920 Climbing FlightAware ADS-B
07:35PM 38.8066 -75.3187 198° South 419 482 35,100 720 Climbing FlightAware ADS-B
07:36PM 38.7424 -75.3455 198° South 421 484 35,500 600 Climbing FlightAware ADS-B
07:36PM 38.7015 -75.3636 199° South 421 484 35,700 540 Climbing FlightAware ADS-B
07:37PM 38.6471 -75.3994 207° Southwest 421 484 36,000 240 Climbing FlightAware ADS-B
07:37PM 38.5826 -75.4443 209° Southwest 419 482 36,000  Level FlightAware ADS-B
07:38PM 38.5187 -75.4885 208° Southwest 423 487 36,000  Level FlightAware ADS-B
07:38PM 38.4630 -75.5269 208° Southwest 427 491 36,000  Level FlightAware ADS-B
07:39PM 38.4065 -75.5659 208° Southwest 427 491 36,000  Level FlightAware ADS-B
07:39PM 38.3534 -75.6023 208° Southwest 428 493 36,000  Level FlightAware ADS-B
07:40PM 38.2712 -75.6588 208° Southwest 428 493 36,000  Level FlightAware ADS-B
07:41PM 38.2183 -75.6950 208° Southwest 430 495 36,000  Level FlightAware ADS-B
07:41PM 38.1643 -75.7319 208° Southwest 432 497 36,000  Level FlightAware ADS-B
07:42PM 38.1109 -75.7683 208° Southwest 435 501 36,000  Level FlightAware ADS-B
07:43PM 38.0330 -75.8210 208° Southwest 438 504 36,000  Level FlightAware
07:43PM 37.9940 -75.8476 208° Southwest 436 502 36,000  Level FlightAware ADS-B
07:43PM 37.9399 -75.8843 208° Southwest 440 506 36,000  Level FlightAware ADS-B
07:44PM 37.8842 -75.9220 208° Southwest 442 509 36,000  Level FlightAware ADS-B
07:44PM 37.8295 -75.9589 208° Southwest 441 507 36,000  Level FlightAware ADS-B
07:45PM 37.7720 -75.9977 208° Southwest 442 509 36,000  Level FlightAware ADS-B
07:45PM 37.7112 -76.0386 208° Southwest 444 511 36,000  Level FlightAware ADS-B
07:46PM 37.6087 -76.1074 208° Southwest 444 511 36,000  Level FlightAware ADS-B
07:47PM 37.5509 -76.1461 208° Southwest 448 516 36,000  Level FlightAware ADS-B
07:47PM 37.4955 -76.1832 208° Southwest 446 513 36,000 60 Level FlightAware ADS-B
07:48PM 37.4405 -76.2199 208° Southwest 446 513 36,100  Climbing FlightAware ADS-B
07:48PM 37.3819 -76.2588 208° Southwest 445 512 36,000 -120 Descending FlightAware ADS-B
07:49PM 37.3340 -76.2910 208° Southwest 438 504 36,000  Level FlightAware
07:49PM 37.3085 -76.3076 207° Southwest 445 512 36,000  Level FlightAware ADS-B
07:50PM 37.2415 -76.3521 208° Southwest 447 514 36,000  Level FlightAware ADS-B
07:50PM 37.1861 -76.3889 208° Southwest 449 517 36,000  Level FlightAware ADS-B
07:51PM 37.1224 -76.4309 208° Southwest 450 518 36,000  Level FlightAware ADS-B
07:51PM 37.0666 -76.4678 208° Southwest 451 519 36,000  Level FlightAware ADS-B
07:52PM 36.9735 -76.5291 208° Southwest 451 519 36,000  Level FlightAware ADS-B
07:53PM 36.8760 -76.5930 208° Southwest 451 519 36,000  Level FlightAware
07:54PM 36.7870 -76.6520 208° Southwest 451 519 36,000  Level FlightAware
07:55PM 36.6850 -76.7180 207° Southwest 447 514 36,000  Level FlightAware
07:56PM 36.6180 -76.7620 208° Southwest 447 514 36,000  Level FlightAware
07:56PM 36.5560 -76.8030 208° Southwest 447 514 36,000  Level FlightAware
07:57PM 36.4940 -76.8440 208° Southwest 447 514 36,000  Level FlightAware
07:58PM 36.4320 -76.8850 208° Southwest 447 514 36,000  Level FlightAware
07:58PM 36.3540 -76.9360 208° Southwest 447 514 36,000  Level FlightAware
07:59PM 36.2920 -76.9770 208° Southwest 447 514 36,000  Level FlightAware
08:00PM 36.2300 -77.0180 208° Southwest 447 514 36,000  Level FlightAware
08:00PM 36.1680 -77.0590 208° Southwest 447 514 36,000  Level FlightAware
08:01PM 36.1060 -77.1000 208° Southwest 447 514 36,000  Level FlightAware
08:02PM 36.0290 -77.1510 208° Southwest 447 514 36,000  Level FlightAware
08:03PM 35.8380 -77.2630 205° Southwest 444 511 36,000  Level FlightAware
08:03PM 35.7640 -77.3100 207° Southwest 445 512 36,000  Level FlightAware
08:04PM 35.7020 -77.3490 207° Southwest 445 512 36,000  Level FlightAware
08:05PM 35.6390 -77.3880 207° Southwest 445 512 36,000  Level FlightAware
08:05PM 35.5770 -77.4270 207° Southwest 445 512 36,000  Level FlightAware
08:06PM 35.5150 -77.4660 207° Southwest 445 512 36,000  Level FlightAware
08:07PM 35.4520 -77.5050 207° Southwest 445 512 36,000  Level FlightAware
08:07PM 35.3740 -77.5540 207° Southwest 445 512 36,000  Level FlightAware
08:08PM 35.3120 -77.5930 207° Southwest 445 512 36,000  Level FlightAware
08:09PM 35.2500 -77.6320 207° Southwest 445 512 36,000  Level FlightAware
08:09PM 35.1870 -77.6700 206° Southwest 445 512 36,000  Level FlightAware
08:10PM 35.1090 -77.7190 207° Southwest 445 512 36,000  Level FlightAware
08:11PM 35.0470 -77.7580 207° Southwest 445 512 36,000  Level FlightAware
08:12PM 34.9850 -77.7970 207° Southwest 445 512 36,000  Level FlightAware
08:12PM 34.9220 -77.8350 206° Southwest 445 512 36,000  Level FlightAware
08:13PM 34.7869 -78.2314 206° Southwest 454 522 36,000  Level Jacksonville Center
08:14PM 34.6867 -78.3378 221° Southwest 454 522 36,000  Level Jacksonville Center
08:15PM 34.5900 -78.4314 219° Southwest 448 516 36,000  Level Jacksonville Center
08:16PM 34.5028 -78.5089 216° Southwest 448 516 36,000  Level Jacksonville Center
08:22PM 33.9640 -79.0310 216° Southwest 437 503 36,000  Level FlightAware
08:23PM 33.8990 -79.0940 219° Southwest 437 503 36,000  Level FlightAware
08:23PM 33.8350 -79.1540 218° Southwest 437 503 36,000  Level FlightAware
08:24PM 33.7640 -79.2220 219° Southwest 437 503 36,000  Level FlightAware
08:25PM 33.7110 -79.2720 218° Southwest 436 502 36,000  Level FlightAware
08:25PM 33.6310 -79.3480 218° Southwest 439 505 36,000  Level FlightAware
08:26PM 33.5450 -79.4300 218° Southwest 439 505 36,000  Level FlightAware
08:27PM 33.4790 -79.4910 218° Southwest 438 504 36,000  Level FlightAware
08:28PM 33.4070 -79.5590 218° Southwest 438 504 36,000  Level FlightAware
08:29PM 33.2970 -79.6620 218° Southwest 438 504 36,000  Level FlightAware
08:30PM 33.2420 -79.7140 218° Southwest 438 504 36,000  Level FlightAware
08:30PM 33.2280 -79.7270 218° Southwest 440 506 36,000  Level FlightAware
08:31PM 33.0960 -79.8510 218° Southwest 442 509 36,000  Level FlightAware
08:32PM 33.0310 -79.9110 218° Southwest 443 510 36,000  Level FlightAware
08:32PM 32.9730 -79.9650 218° Southwest 444 511 36,000  Level FlightAware
08:33PM 32.9020 -80.0300 218° Southwest 446 513 36,000  Level FlightAware
08:34PM 32.8280 -80.0860 212° Southwest 447 514 36,000  Level FlightAware
08:35PM 32.7450 -80.1480 212° Southwest 445 512 36,000  Level FlightAware
08:35PM 32.6750 -80.1990 212° Southwest 444 511 36,000  Level FlightAware
08:36PM 32.6090 -80.2480 212° Southwest 444 511 36,000  Level FlightAware
08:37PM 32.5320 -80.3050 212° Southwest 444 511 36,000  Level FlightAware
08:37PM 32.4620 -80.3560 212° Southwest 443 510 36,000  Level FlightAware
08:38PM 32.3630 -80.4280 212° Southwest 443 510 36,000  Level FlightAware
08:39PM 32.2820 -80.4770 207° Southwest 449 517 36,000  Level FlightAware
08:40PM 32.2200 -80.5030 200° South 449 517 36,000  Level FlightAware
08:40PM 32.2030 -80.5100 199° South 448 516 36,000  Level FlightAware
08:46PM 31.4460 -80.7280 194° South 449 517 36,000  Level FlightAware
08:47PM 31.3950 -80.7380 190° South 448 516 36,000  Level FlightAware
08:47PM 31.2860 -80.7580 189° South 448 516 36,000  Level FlightAware
08:48PM 31.2160 -80.7710 189° South 448 516 36,000  Level FlightAware
08:49PM 31.1470 -80.7840 189° South 448 516 36,000  Level FlightAware
08:49PM 31.0770 -80.7960 188° South 448 516 36,000  Level FlightAware
08:50PM 30.9900 -80.8120 189° South 448 516 36,000  Level FlightAware
08:51PM 30.9200 -80.8250 189° South 448 516 36,000  Level FlightAware
08:52PM 30.8510 -80.8380 189° South 448 516 36,000  Level FlightAware
08:52PM 30.7810 -80.8510 189° South 448 516 36,000  Level FlightAware
08:53PM 30.7120 -80.8640 189° South 448 516 36,000  Level FlightAware
08:54PM 30.6250 -80.8800 189° South 448 516 36,000  Level FlightAware
08:54PM 30.5550 -80.8930 189° South 448 516 36,000  Level FlightAware
08:55PM 30.4850 -80.9050 188° South 448 516 36,000  Level FlightAware
08:56PM 30.4160 -80.9180 189° South 448 516 36,000  Level FlightAware
08:56PM 30.3460 -80.9310 189° South 448 516 36,000 -4,560 Level FlightAware
08:57PM 30.0331 -80.9828 189° South 443 510 28,600 -4,800 Descending Jacksonville Center
08:58PM 29.9164 -81.0067 190° South 437 503 26,600 -1,980 Descending Jacksonville Center
08:59PM 29.8061 -81.0256 188° South 420 483 24,700 -1,920 Descending Jacksonville Center
09:00PM 29.6958 -81.0444 188° South 410 472 22,800 -1,980 Descending Jacksonville Center
09:01PM 29.5894 -81.0631 189° South 397 457 20,800 -1,920 Descending Jacksonville Center
09:02PM 29.4875 -81.0842 190° South 387 445 19,000 -1,680 Descending Jacksonville Center
09:03PM 29.3875 -81.0978 187° South 377 434 17,500 -1,620 Descending Jacksonville Center
09:04PM 29.2917 -81.1139 188° South 370 426 15,800 -1,740 Descending Jacksonville Center
09:05PM 29.1978 -81.1061 176° South 355 409 14,100 -1,620 Descending Jacksonville Center
09:06PM 29.1078 -81.0983 176° South 341 392 12,600 -1,020 Descending Jacksonville Center
09:07PM 29.0242 -81.0950 178° South 323 372 12,100 -600 Descending Jacksonville Center
09:08PM 28.9428 -81.0800 171° South 310 357 11,500 -1,080 Descending Jacksonville Center
09:09PM 28.8667 -81.0667 171° South 292 336 10,200 -1,320 Descending Orlando TRACON
09:10PM 28.8000 -81.0500 168° South 272 313 9,100 -960 Descending Orlando TRACON
09:11PM 28.7667 -81.1000 233° Southwest 249 287 8,400 -1,080 Descending Orlando TRACON
09:12PM 28.7500 -81.2000 259° West 246 283 7,000 -1,260 Descending Orlando TRACON
09:13PM 28.7333 -81.2500 249° West 245 282 6,100 -1,080 Descending Orlando TRACON
09:14PM 28.7167 -81.3000 249° West 227 261 5,200 -1,260 Descending Orlando TRACON
09:15PM 28.6500 -81.3167 192° South 223 257 3,800 -1,140 Descending Orlando TRACON
09:16PM 28.5833 -81.3167 180° South 193 222 3,000 -720 Descending Orlando TRACON
09:17PM 28.5333 -81.3333 196° South 156 180 2,400 -960 Descending Orlando TRACON
09:18PM 28.5000 -81.3167 156° South 148 170 1,000 -1,440 Descending Orlando TRACON
09:20PM 28.4294 -81.3090 176° South  Level Estimated
09:27PM 28.4294 -81.3090 176° South  Level Estimated
09:28PM 28.4294 -81.3090 176° South  Level Estimated
09:29PM 28.4294 -81.3090 176° South  Level Estimated
09:30PM 28.4294 -81.3090 176° South  Level Estimated